createdAt,value
2019-05-11T00:02:28.655Z,12.60
2019-05-11T00:07:32.387Z,12.50
2019-05-11T00:12:37.269Z,12.70
2019-05-11T00:17:40.962Z,12.70
2019-05-11T00:22:44.639Z,12.60
2019-05-11T00:27:48.295Z,12.40
2019-05-11T00:32:51.938Z,12.40
2019-05-11T00:37:55.638Z,12.50
2019-05-11T00:42:59.304Z,12.40
2019-05-11T00:48:03.076Z,11.90
2019-05-11T00:53:06.814Z,11.90
2019-05-11T00:58:10.485Z,12.00
2019-05-11T01:03:14.190Z,12.20
2019-05-11T01:08:17.861Z,12.10
2019-05-11T01:13:21.557Z,12.20
2019-05-11T01:18:25.283Z,12.10
2019-05-11T01:23:28.985Z,12.20
2019-05-11T01:28:32.764Z,12.50
2019-05-11T01:33:36.498Z,12.70
2019-05-11T01:38:40.262Z,12.70
2019-05-11T01:43:44.078Z,12.50
2019-05-11T01:48:47.736Z,12.60
2019-05-11T01:53:51.381Z,12.30
2019-05-11T01:58:55.101Z,11.20
2019-05-11T02:03:58.763Z,11.20
2019-05-11T02:09:02.436Z,11.80
2019-05-11T02:14:06.042Z,11.60
2019-05-11T02:19:09.745Z,11.60
2019-05-11T02:24:13.406Z,11.80
2019-05-11T02:29:17.023Z,11.50
2019-05-11T02:34:20.667Z,11.40
2019-05-11T02:39:24.394Z,11.40
2019-05-11T02:44:28.024Z,11.90
2019-05-11T02:49:31.658Z,11.40
2019-05-11T02:54:35.729Z,11.30
2019-05-11T02:59:39.348Z,11.90
2019-05-11T03:04:42.964Z,12.30
2019-05-11T03:09:46.589Z,12.30
2019-05-11T03:14:50.278Z,12.40
2019-05-11T03:19:53.948Z,12.20
2019-05-11T03:24:57.642Z,12.10
2019-05-11T03:30:02.149Z,12.20
2019-05-11T03:35:06.551Z,11.90
2019-05-11T03:40:10.792Z,12.10
2019-05-11T03:45:14.666Z,12.70
2019-05-11T03:50:18.535Z,12.20
2019-05-11T03:55:22.438Z,12.20
2019-05-11T04:00:26.294Z,11.90
2019-05-11T04:05:30.046Z,12.30
2019-05-11T04:10:36.448Z,11.90
2019-05-11T04:15:40.060Z,11.80
2019-05-11T04:20:43.694Z,11.90
2019-05-11T04:25:47.377Z,11.70
2019-05-11T04:30:51.027Z,12.00
2019-05-11T04:35:54.669Z,12.10
2019-05-11T04:40:58.537Z,11.90
2019-05-11T04:46:02.153Z,12.30
2019-05-11T04:51:05.768Z,12.70
2019-05-11T04:56:09.404Z,12.50
2019-05-11T05:01:13.096Z,12.40
2019-05-11T05:06:24.675Z,12.30
2019-05-11T05:11:22.251Z,12.50
2019-05-11T05:16:25.890Z,12.50
2019-05-11T05:21:29.570Z,12.80
2019-05-11T05:26:33.487Z,13.20
2019-05-11T05:31:37.334Z,13.40
2019-05-11T05:36:40.878Z,12.80
2019-05-11T05:41:56.670Z,12.20
2019-05-11T05:46:51.104Z,12.10
2019-05-11T05:51:58.081Z,12.10
2019-05-11T05:57:00.541Z,12.20
2019-05-11T06:02:04.506Z,12.30
2019-05-11T06:07:08.246Z,12.50
2019-05-11T06:12:11.925Z,12.50
2019-05-11T06:17:15.550Z,12.60
2019-05-11T06:22:19.236Z,13.20
2019-05-11T06:27:22.855Z,13.10
2019-05-11T06:32:26.471Z,13.20
2019-05-11T06:37:32.430Z,13.40
2019-05-11T06:42:37.760Z,13.00
2019-05-11T06:47:41.714Z,13.10
2019-05-11T06:52:46.191Z,13.20
2019-05-11T06:57:49.834Z,13.20
2019-05-11T07:02:53.531Z,13.40
2019-05-11T07:07:57.515Z,13.50
2019-05-11T07:13:01.085Z,13.40
2019-05-11T07:18:04.890Z,13.40
2019-05-11T07:23:08.536Z,13.40
2019-05-11T07:28:12.174Z,13.40
2019-05-11T07:33:18.160Z,13.40
2019-05-11T07:38:22.183Z,13.70
2019-05-11T07:43:25.798Z,13.60
2019-05-11T07:48:29.494Z,13.90
2019-05-11T07:53:33.114Z,13.90
2019-05-11T07:58:38.706Z,13.80
2019-05-11T08:03:42.227Z,13.70
2019-05-11T08:08:45.999Z,13.50
2019-05-11T08:13:49.645Z,13.30
2019-05-11T08:18:53.275Z,13.30
2019-05-11T08:23:58.771Z,13.50
2019-05-11T08:29:02.413Z,13.40
2019-05-11T08:34:08.657Z,13.40
2019-05-11T08:39:11.551Z,13.30
2019-05-11T08:44:15.328Z,13.40
2019-05-11T08:49:19.208Z,13.30
2019-05-11T08:54:23.018Z,13.30
2019-05-11T08:59:28.570Z,13.40
2019-05-11T09:04:33.066Z,13.50
2019-05-11T09:09:38.027Z,13.70
2019-05-11T09:14:41.973Z,13.70
2019-05-11T09:19:47.929Z,13.80
2019-05-11T09:24:50.897Z,13.90
2019-05-11T09:29:54.494Z,13.90
2019-05-11T09:34:58.217Z,14.00
2019-05-11T09:40:01.827Z,13.70
2019-05-11T09:45:08.027Z,13.50
2019-05-11T09:50:11.957Z,13.50
2019-05-11T09:55:18.792Z,13.50
2019-05-11T10:00:21.780Z,13.50
2019-05-11T10:05:25.408Z,13.20
2019-05-11T10:10:29.218Z,13.40
2019-05-11T10:15:32.870Z,13.70
2019-05-11T10:20:38.918Z,12.60
2019-05-11T10:25:41.775Z,12.00
2019-05-11T10:30:45.366Z,11.90
2019-05-11T10:35:49.084Z,12.00
2019-05-11T10:40:52.705Z,12.00
2019-05-11T10:45:58.617Z,12.10
2019-05-11T10:51:01.735Z,12.00
2019-05-11T10:56:05.411Z,12.10
2019-05-11T11:01:09.108Z,11.90
2019-05-11T11:06:12.800Z,12.00
2019-05-11T11:11:18.511Z,12.10
2019-05-11T11:16:35.755Z,12.50
2019-05-11T11:21:27.884Z,12.90
2019-05-11T11:26:31.762Z,13.50
2019-05-11T11:31:37.989Z,13.70
2019-05-11T11:36:41.905Z,14.00
2019-05-11T11:41:45.567Z,13.70
2019-05-11T11:46:54.950Z,13.90
2019-05-11T11:51:54.441Z,14.00
2019-05-11T11:56:59.592Z,14.10
2019-05-11T12:02:03.368Z,13.80
2019-05-11T12:07:08.420Z,13.80
2019-05-11T12:12:12.266Z,13.60
2019-05-11T12:17:18.047Z,13.60
2019-05-11T12:22:21.287Z,13.60
2019-05-11T12:27:24.975Z,13.60
2019-05-11T12:32:30.367Z,13.60
2019-05-11T12:37:33.952Z,13.60
2019-05-11T12:42:38.143Z,13.60
2019-05-11T12:47:43.648Z,13.70
2019-05-11T12:52:47.725Z,13.50
2019-05-11T12:57:51.551Z,13.30
2019-05-11T13:02:55.236Z,13.30
2019-05-11T13:07:58.951Z,13.20
2019-05-11T13:13:02.887Z,13.20
2019-05-11T13:18:08.341Z,13.10
2019-05-11T13:23:12.261Z,13.30
2019-05-11T13:28:17.878Z,13.70
2019-05-11T13:33:27.967Z,13.90
2019-05-11T13:38:31.722Z,13.80
2019-05-11T13:43:35.330Z,13.90
2019-05-11T13:48:38.957Z,13.80
2019-05-11T13:53:42.605Z,13.70
2019-05-11T13:58:48.523Z,13.80
2019-05-11T14:03:53.238Z,13.40
2019-05-11T14:08:58.681Z,13.50
2019-05-11T14:14:02.119Z,13.40
2019-05-11T14:19:08.366Z,13.30
2019-05-11T14:24:11.313Z,11.50
2019-05-11T14:29:14.939Z,10.90
2019-05-11T14:34:19.217Z,11.10
2019-05-11T14:39:22.832Z,10.90
2019-05-11T14:44:28.523Z,11.10
2019-05-11T14:49:31.853Z,11.20
2019-05-11T14:54:35.494Z,11.30
2019-05-11T14:59:39.179Z,11.50
2019-05-11T15:04:42.809Z,11.70
2019-05-11T15:09:48.087Z,11.70
2019-05-11T15:14:51.850Z,11.90
2019-05-11T15:19:57.925Z,11.40
2019-05-11T15:25:01.101Z,11.40
2019-05-11T15:30:07.990Z,10.90
2019-05-11T15:35:11.493Z,10.50
2019-05-11T15:40:18.586Z,10.40
2019-05-11T15:45:22.700Z,10.60
2019-05-11T15:50:28.847Z,10.70
2019-05-11T15:55:34.946Z,11.50
2019-05-11T16:00:41.406Z,11.90
2019-05-11T16:05:45.102Z,11.70
2019-05-11T16:10:49.026Z,11.30
2019-05-11T16:15:52.778Z,11.20
2019-05-11T16:20:58.274Z,11.00
2019-05-11T16:26:01.752Z,10.90
2019-05-11T16:31:05.370Z,10.70
2019-05-11T16:36:09.300Z,10.50
2019-05-11T16:41:17.893Z,10.60
2019-05-11T16:46:22.814Z,10.40
2019-05-11T16:51:28.490Z,10.30
2019-05-11T16:56:31.765Z,10.30
2019-05-11T17:01:37.692Z,10.30
2019-05-11T17:06:40.745Z,10.40
2019-05-11T17:11:44.459Z,10.30
2019-05-11T17:16:48.350Z,10.10
2019-05-11T17:21:52.044Z,9.90
2019-05-11T17:26:58.225Z,9.80
2019-05-11T17:32:00.911Z,9.70
2019-05-11T17:37:04.678Z,9.70
2019-05-11T17:42:08.969Z,9.50
2019-05-11T17:47:13.001Z,9.50
2019-05-11T17:52:18.803Z,9.50
2019-05-11T17:57:21.860Z,9.40
2019-05-11T18:02:25.473Z,9.30
2019-05-11T18:07:30.985Z,9.30
2019-05-11T18:12:34.437Z,9.20
2019-05-11T18:17:38.052Z,9.50
2019-05-11T18:22:41.654Z,9.30
2019-05-11T18:27:47.989Z,9.20
2019-05-11T18:32:50.657Z,9.30
2019-05-11T18:37:54.274Z,9.20
2019-05-11T18:42:57.970Z,9.10
2019-05-11T18:48:01.713Z,9.10
2019-05-11T18:53:05.328Z,9.10
2019-05-11T18:58:09.000Z,9.00
2019-05-11T19:03:12.632Z,8.90
2019-05-11T19:08:18.753Z,9.00
2019-05-11T19:13:21.587Z,9.00
2019-05-11T19:18:25.282Z,9.00
2019-05-11T19:23:28.973Z,8.80
2019-05-11T19:28:32.612Z,8.70
2019-05-11T19:33:38.213Z,8.50
2019-05-11T19:38:41.575Z,8.50
2019-05-11T19:43:45.351Z,8.70
2019-05-11T19:48:48.960Z,8.40
2019-05-11T19:53:52.606Z,8.30
2019-05-11T19:58:57.942Z,8.30
2019-05-11T20:04:01.621Z,8.40
2019-05-11T20:09:08.767Z,8.40
2019-05-11T20:14:12.010Z,8.40
2019-05-11T20:19:15.696Z,8.60
2019-05-11T20:24:19.306Z,8.40
2019-05-11T20:29:22.994Z,8.60
2019-05-11T20:34:28.798Z,8.90
2019-05-11T20:39:31.972Z,8.80
2019-05-11T20:44:37.797Z,8.80
2019-05-11T20:49:40.864Z,8.70
2019-05-11T20:54:44.559Z,8.70
2019-05-11T20:59:48.213Z,8.70
2019-05-11T21:04:52.870Z,8.90
2019-05-11T21:09:58.022Z,9.00
2019-05-11T21:15:01.647Z,9.00
2019-05-11T21:20:08.343Z,9.00
2019-05-11T21:25:14.030Z,9.10
2019-05-11T21:30:19.523Z,9.20
2019-05-11T21:35:28.955Z,9.10
2019-05-11T21:40:34.436Z,9.20
2019-05-11T21:45:40.532Z,9.00
2019-05-11T21:50:46.175Z,9.00
2019-05-11T21:55:49.796Z,8.80
2019-05-11T22:00:55.155Z,9.00
2019-05-11T22:05:58.913Z,9.00
2019-05-11T22:11:05.430Z,9.10
2019-05-11T22:16:13.110Z,9.20
2019-05-11T22:21:18.750Z,9.20
2019-05-11T22:26:28.593Z,9.20
2019-05-11T22:31:32.068Z,9.20
2019-05-11T22:36:35.712Z,9.20
2019-05-11T22:41:43.928Z,9.10
2019-05-11T22:46:48.469Z,9.10
2019-05-11T22:51:52.158Z,9.00
2019-05-11T22:56:58.773Z,9.20
2019-05-11T23:02:07.757Z,9.20
2019-05-11T23:07:12.419Z,9.20
2019-05-11T23:12:17.947Z,9.00
2019-05-11T23:17:27.474Z,9.10
2019-05-11T23:22:50.753Z,9.10
2019-05-11T23:27:48.711Z,9.20
2019-05-11T23:32:52.818Z,9.00
2019-05-11T23:37:58.137Z,9.10
2019-05-11T23:43:08.315Z,8.90
2019-05-11T23:48:11.530Z,9.00
2019-05-11T23:53:21.307Z,8.90
2019-05-11T23:58:24.911Z,8.80
